Time;durP1;ratioP1;P1;durP2;ratioP2;P2;SDS_P1;SDS_P2;PMS_P1;PMS_P2;Temp;Humidity;BMP_temperature;BMP_pressure;BME280_temperature;BME280_humidity;BME280_pressure;Samples;Min_cycle;Max_cycle;Signal;HPM_P1;HPM_P2
2021/07/07 00:00:00;;;;;;;3.35;1.48;;;20.50;99.90;;;;;;4993714;28;20046;-75
2021/07/07 00:02:26;;;;;;;1.50;1.40;;;20.50;99.90;;;;;;4993911;28;20042;-74
2021/07/07 00:04:53;;;;;;;1.20;1.13;;;20.40;99.90;;;;;;4990366;28;20490;-75
2021/07/07 00:07:21;;;;;;;3.05;1.20;;;20.30;99.90;;;;;;4993638;28;20120;-73
2021/07/07 00:09:48;;;;;;;1.27;1.17;;;20.10;99.90;;;;;;4993412;28;20104;-75
2021/07/07 00:12:15;;;;;;;1.50;1.25;;;20.00;99.90;;;;;;4984586;28;20101;-73
2021/07/07 00:14:42;;;;;;;1.60;1.50;;;19.90;99.90;;;;;;4977207;28;20058;-75
2021/07/07 00:17:08;;;;;;;1.92;1.75;;;19.80;99.90;;;;;;4993925;28;20104;-74
2021/07/07 00:19:35;;;;;;;1.70;1.60;;;19.80;99.90;;;;;;4993144;28;20097;-73
2021/07/07 00:22:01;;;;;;;1.98;1.30;;;19.70;99.90;;;;;;4993458;28;20490;-73
2021/07/07 00:24:30;;;;;;;1.30;1.20;;;19.70;99.90;;;;;;4993560;28;20046;-74
2021/07/07 00:26:56;;;;;;;1.83;1.40;;;19.70;99.90;;;;;;4994164;28;20042;-74
2021/07/07 00:29:23;;;;;;;1.70;1.60;;;19.60;99.90;;;;;;4993123;28;20151;-73
2021/07/07 00:31:49;;;;;;;1.48;1.38;;;19.50;99.90;;;;;;4994001;28;20120;-73
2021/07/07 00:34:16;;;;;;;2.00;1.75;;;19.50;99.90;;;;;;4993479;28;20069;-74
2021/07/07 00:36:43;;;;;;;2.35;1.60;;;19.40;99.90;;;;;;4993474;28;20046;-75
2021/07/07 00:39:09;;;;;;;2.67;1.70;;;19.40;99.90;;;;;;4992756;28;20093;-74
2021/07/07 00:41:37;;;;;;;1.85;1.75;;;19.30;99.90;;;;;;4993513;28;20046;-75
2021/07/07 00:44:04;;;;;;;2.05;1.95;;;19.30;99.90;;;;;;4993321;28;20054;-74
2021/07/07 00:46:31;;;;;;;2.83;1.95;;;19.30;99.90;;;;;;4992798;28;20047;-74
2021/07/07 00:48:57;;;;;;;2.13;1.92;;;19.20;99.90;;;;;;4992531;28;20108;-73
2021/07/07 00:51:24;;;;;;;1.70;1.60;;;19.20;99.90;;;;;;4993159;28;20113;-75
2021/07/07 00:53:51;;;;;;;2.70;2.00;;;19.20;99.90;;;;;;4993230;28;20050;-73
2021/07/07 00:56:18;;;;;;;2.10;1.80;;;19.20;99.90;;;;;;4993096;28;20141;-73
2021/07/07 00:58:48;;;;;;;2.00;1.90;;;19.10;99.90;;;;;;4992794;28;20499;-75
2021/07/07 01:01:14;;;;;;;1.90;1.75;;;19.10;99.90;;;;;;4992795;28;20049;-75
2021/07/07 01:03:41;;;;;;;3.53;2.08;;;19.10;99.90;;;;;;4992957;28;20054;-74
2021/07/07 01:06:07;;;;;;;2.05;1.95;;;19.00;99.90;;;;;;4993010;28;20058;-74
2021/07/07 01:08:34;;;;;;;3.55;2.17;;;19.00;99.90;;;;;;4992940;28;20096;-75
2021/07/07 01:11:01;;;;;;;1.75;1.63;;;18.90;99.90;;;;;;4992395;28;20050;-75
2021/07/07 01:13:27;;;;;;;2.22;2.05;;;18.90;99.90;;;;;;4986741;28;20100;-74
2021/07/07 01:15:56;;;;;;;1.90;1.80;;;18.80;99.90;;;;;;4992689;28;20108;-74
2021/07/07 01:18:23;;;;;;;2.17;1.80;;;18.80;99.90;;;;;;4992220;28;20108;-75
2021/07/07 01:20:49;;;;;;;3.25;2.30;;;18.80;99.90;;;;;;4991334;28;20109;-74
2021/07/07 01:23:17;;;;;;;2.30;2.10;;;18.80;99.90;;;;;;4992651;28;20073;-74
2021/07/07 01:25:44;;;;;;;2.15;1.67;;;18.80;99.90;;;;;;4992453;28;20046;-75
2021/07/07 01:28:11;;;;;;;3.55;2.40;;;18.70;99.90;;;;;;4992660;28;20153;-76
2021/07/07 01:30:38;;;;;;;3.45;1.90;;;18.60;99.90;;;;;;4992027;28;20112;-77
2021/07/07 01:33:04;;;;;;;2.10;1.85;;;18.60;99.90;;;;;;4992303;28;20104;-76
2021/07/07 01:35:31;;;;;;;1.98;1.77;;;18.60;99.90;;;;;;4992312;28;20049;-76
2021/07/07 01:37:58;;;;;;;1.60;1.50;;;18.60;99.90;;;;;;4992299;28;20498;-76
2021/07/07 01:40:28;;;;;;;2.00;1.83;;;18.50;99.90;;;;;;4992085;28;20105;-75
2021/07/07 01:42:55;;;;;;;2.05;1.85;;;18.50;99.90;;;;;;4992660;28;20046;-75
2021/07/07 01:45:25;;;;;;;2.58;2.08;;;18.60;99.90;;;;;;4992412;28;20046;-76
2021/07/07 01:47:53;;;;;;;3.50;2.05;;;18.60;99.90;;;;;;4992194;28;20050;-76
2021/07/07 01:50:20;;;;;;;2.42;2.22;;;18.60;99.90;;;;;;4991653;28;20050;-77
2021/07/07 01:52:47;;;;;;;3.53;2.55;;;18.50;99.90;;;;;;4991958;28;20054;-76
2021/07/07 01:55:16;;;;;;;3.25;2.47;;;18.50;99.90;;;;;;4992275;28;20050;-77
2021/07/07 01:57:45;;;;;;;2.08;1.98;;;18.50;99.90;;;;;;4992438;28;20046;-77
2021/07/07 02:00:15;;;;;;;2.00;1.85;;;18.50;99.90;;;;;;4991247;28;20502;-76
2021/07/07 02:02:42;;;;;;;4.35;2.03;;;18.60;99.90;;;;;;4991823;28;20046;-74
2021/07/07 02:05:10;;;;;;;2.10;2.00;;;18.60;99.90;;;;;;4992172;28;20053;-74
2021/07/07 02:07:37;;;;;;;1.98;1.88;;;18.60;99.90;;;;;;4991530;28;20491;-76
2021/07/07 02:10:07;;;;;;;2.70;2.50;;;18.40;99.90;;;;;;4991950;28;20089;-75
2021/07/07 02:12:34;;;;;;;2.78;2.58;;;18.40;99.90;;;;;;4992188;28;20105;-74
2021/07/07 02:15:05;;;;;;;2.58;2.40;;;18.40;99.90;;;;;;4991843;28;20453;-74
2021/07/07 02:17:31;;;;;;;3.03;2.45;;;18.30;99.90;;;;;;4991880;28;20506;-74
2021/07/07 02:19:58;;;;;;;3.00;2.58;;;18.30;99.90;;;;;;4991532;28;20047;-73
2021/07/07 02:22:25;;;;;;;3.10;2.90;;;18.40;99.90;;;;;;4991594;28;20101;-73
2021/07/07 02:24:51;;;;;;;2.88;2.67;;;18.40;99.90;;;;;;4992433;28;20073;-74
2021/07/07 02:27:18;;;;;;;2.70;2.50;;;18.40;99.90;;;;;;4992127;28;20058;-76
2021/07/07 02:29:44;;;;;;;2.67;2.42;;;18.40;99.90;;;;;;4991579;28;20105;-75
2021/07/07 02:32:12;;;;;;;2.80;2.60;;;18.40;99.90;;;;;;4991801;28;20050;-76
2021/07/07 02:34:39;;;;;;;3.17;2.88;;;18.30;99.90;;;;;;4992908;28;20046;-76
2021/07/07 02:37:06;;;;;;;4.15;2.80;;;18.20;99.90;;;;;;4996130;28;20050;-76
2021/07/07 02:39:32;;;;;;;3.50;3.30;;;18.10;99.90;;;;;;4995249;28;20050;-76
2021/07/07 02:41:59;;;;;;;2.85;2.55;;;18.10;99.90;;;;;;4992193;28;20350;-75
2021/07/07 02:44:26;;;;;;;4.85;3.60;;;18.10;99.90;;;;;;4995187;28;20069;-75
2021/07/07 02:46:52;;;;;;;3.28;2.92;;;18.10;99.90;;;;;;4995460;28;20054;-75
2021/07/07 02:49:20;;;;;;;3.40;3.03;;;18.10;99.90;;;;;;4995677;28;20106;-74
2021/07/07 02:51:47;;;;;;;3.30;3.00;;;18.10;99.90;;;;;;4995315;28;20507;-73
2021/07/07 02:54:14;;;;;;;2.67;2.47;;;18.00;99.90;;;;;;4995372;28;20105;-72
2021/07/07 02:56:40;;;;;;;4.47;2.85;;;18.00;99.90;;;;;;4995084;28;20054;-72
2021/07/07 02:59:07;;;;;;;6.13;3.10;;;18.00;99.90;;;;;;4994846;28;20121;-72
2021/07/07 03:01:34;;;;;;;3.38;2.30;;;18.10;99.90;;;;;;4995169;28;20046;-74
2021/07/07 03:04:00;;;;;;;4.57;3.88;;;18.10;99.90;;;;;;4995416;28;20046;-75
2021/07/07 03:06:28;;;;;;;4.03;3.72;;;18.10;99.90;;;;;;4994726;28;20057;-76
2021/07/07 03:08:55;;;;;;;5.20;3.58;;;18.10;99.90;;;;;;4994779;28;20112;-74
2021/07/07 03:11:22;;;;;;;3.58;3.28;;;18.10;99.90;;;;;;4995395;28;20049;-76
2021/07/07 03:13:48;;;;;;;3.60;3.25;;;18.10;99.90;;;;;;4994918;28;20132;-75
2021/07/07 03:16:15;;;;;;;3.75;3.45;;;18.20;99.90;;;;;;4994789;28;20046;-74
2021/07/07 03:18:41;;;;;;;5.95;3.60;;;18.20;99.90;;;;;;4994198;28;20042;-74
2021/07/07 03:21:11;;;;;;;3.92;3.42;;;18.10;99.90;;;;;;4994411;28;20058;-73
2021/07/07 03:23:38;;;;;;;5.43;3.75;;;18.10;99.90;;;;;;4994809;28;20046;-73
2021/07/07 03:26:05;;;;;;;4.50;3.33;;;18.00;99.90;;;;;;4994920;28;20116;-73
2021/07/07 03:28:32;;;;;;;3.90;3.55;;;18.10;99.90;;;;;;4994119;28;20053;-74
2021/07/07 03:30:58;;;;;;;4.22;3.50;;;18.20;99.90;;;;;;4994223;28;20043;-74
2021/07/07 03:33:25;;;;;;;4.40;3.30;;;18.20;99.90;;;;;;4994517;28;20461;-74
2021/07/07 03:35:52;;;;;;;4.45;2.92;;;18.20;99.90;;;;;;4994666;28;20101;-73
2021/07/07 03:38:19;;;;;;;5.03;3.90;;;18.20;99.90;;;;;;4993283;28;20046;-64
2021/07/07 03:40:47;;;;;;;3.95;3.00;;;18.30;99.90;;;;;;4994704;28;20077;-64
2021/07/07 03:43:14;;;;;;;3.35;3.05;;;18.30;99.90;;;;;;4994920;28;20564;-64
2021/07/07 03:45:40;;;;;;;4.93;4.53;;;18.30;99.90;;;;;;4993085;28;20047;-65
2021/07/07 03:48:08;;;;;;;4.07;3.67;;;18.30;99.90;;;;;;4994154;28;20074;-66
2021/07/07 03:50:35;;;;;;;3.50;3.20;;;18.40;99.90;;;;;;4994003;28;20050;-64
2021/07/07 03:53:03;;;;;;;4.40;3.38;;;18.30;99.90;;;;;;4993932;28;20104;-64
2021/07/07 03:55:29;;;;;;;4.40;4.00;;;18.50;99.90;;;;;;4994487;28;20405;-64
2021/07/07 03:57:57;;;;;;;4.50;4.10;;;18.50;99.90;;;;;;4994090;28;20043;-64
2021/07/07 04:00:26;;;;;;;4.25;3.90;;;18.40;99.90;;;;;;4993022;28;20503;-65
2021/07/07 04:02:55;;;;;;;3.75;3.40;;;18.30;99.90;;;;;;4985461;28;20049;-66
2021/07/07 04:05:22;;;;;;;4.80;4.20;;;18.30;99.90;;;;;;4995068;28;20051;-63
2021/07/07 04:07:49;;;;;;;4.22;3.67;;;18.30;99.90;;;;;;4995111;28;20502;-65
2021/07/07 04:10:18;;;;;;;4.55;4.13;;;18.20;99.90;;;;;;4996198;28;20483;-66
2021/07/07 04:12:46;;;;;;;4.72;4.32;;;18.20;99.90;;;;;;4996455;28;20097;-66
2021/07/07 04:15:15;;;;;;;4.65;4.00;;;18.10;99.90;;;;;;4995411;28;20050;-68
2021/07/07 04:17:44;;;;;;;4.28;3.88;;;18.00;99.90;;;;;;4996104;28;20046;-65
2021/07/07 04:20:17;;;;;;;5.07;4.57;;;18.00;99.90;;;;;;4994100;28;20557;-64
2021/07/07 04:22:44;;;;;;;7.72;3.80;;;18.00;99.90;;;;;;4994888;28;20076;-65
2021/07/07 04:25:14;;;;;;;4.15;3.75;;;18.10;99.90;;;;;;4994426;28;20050;-76
2021/07/07 04:27:40;;;;;;;6.57;3.70;;;18.10;99.90;;;;;;4993266;28;20076;-77
2021/07/07 04:30:10;;;;;;;6.20;4.00;;;18.10;99.90;;;;;;4993541;28;20092;-77
2021/07/07 04:32:38;;;;;;;4.43;3.78;;;18.10;99.90;;;;;;4996131;28;20047;-77
2021/07/07 04:35:07;;;;;;;6.65;3.70;;;18.10;99.90;;;;;;4994194;28;20047;-76
2021/07/07 04:37:33;;;;;;;3.78;3.10;;;18.00;99.90;;;;;;4993122;28;20054;-74
2021/07/07 04:40:00;;;;;;;4.25;3.85;;;18.00;99.90;;;;;;4992420;28;20054;-71
2021/07/07 04:42:27;;;;;;;5.10;4.07;;;18.10;99.90;;;;;;4994304;28;20104;-72
2021/07/07 04:44:53;;;;;;;3.70;3.35;;;18.10;99.90;;;;;;4994217;28;20047;-72
2021/07/07 04:47:20;;;;;;;5.18;4.00;;;18.10;99.90;;;;;;4993425;28;20050;-72
2021/07/07 04:49:48;;;;;;;4.07;3.67;;;18.00;99.90;;;;;;4993369;28;20159;-72
2021/07/07 04:52:14;;;;;;;3.67;3.40;;;18.00;99.90;;;;;;4993341;28;20092;-71
2021/07/07 04:54:41;;;;;;;3.97;3.67;;;17.90;99.90;;;;;;4993458;28;20054;-76
2021/07/07 04:57:08;;;;;;;3.80;3.50;;;17.80;99.90;;;;;;4992696;28;20097;-77
2021/07/07 04:59:34;;;;;;;4.07;3.72;;;17.90;99.90;;;;;;4991823;28;20414;-70
2021/07/07 05:02:01;;;;;;;4.32;3.78;;;17.90;99.90;;;;;;4993306;28;20046;-72
2021/07/07 05:04:28;;;;;;;4.38;3.97;;;17.90;99.90;;;;;;4993161;28;20145;-72
2021/07/07 05:06:56;;;;;;;5.50;4.82;;;17.90;99.90;;;;;;4992285;28;20097;-74
2021/07/07 05:09:23;;;;;;;6.47;5.35;;;17.90;99.90;;;;;;4992003;28;20070;-71
2021/07/07 05:11:51;;;;;;;33.42;19.50;;;17.90;99.90;;;;;;4992394;28;20518;-70
2021/07/07 05:14:19;;;;;;;8.35;5.95;;;17.90;99.90;;;;;;4993059;28;20461;-71
2021/07/07 05:16:46;;;;;;;14.18;11.30;;;17.90;99.90;;;;;;4993068;28;20046;-72
2021/07/07 05:19:13;;;;;;;5.32;4.75;;;18.00;99.90;;;;;;4992548;28;20050;-75
2021/07/07 05:21:39;;;;;;;6.45;4.03;;;17.90;99.90;;;;;;4992058;28;20042;-73
2021/07/07 05:24:07;;;;;;;10.65;8.10;;;17.90;99.90;;;;;;4992157;28;20054;-70
2021/07/07 05:26:35;;;;;;;6.80;5.13;;;17.80;99.90;;;;;;4992470;28;20101;-69
2021/07/07 05:29:02;;;;;;;4.43;4.00;;;17.80;99.90;;;;;;4992200;28;20072;-68
2021/07/07 05:31:28;;;;;;;6.03;5.00;;;17.70;99.90;;;;;;4992410;28;20042;-67
2021/07/07 05:33:55;;;;;;;10.52;7.78;;;17.70;99.90;;;;;;4992667;28;20057;-76
2021/07/07 05:36:22;;;;;;;6.45;5.85;;;17.70;99.90;;;;;;4993192;28;20085;-74
2021/07/07 05:38:48;;;;;;;8.15;6.45;;;17.70;99.90;;;;;;4992063;28;20046;-74
2021/07/07 05:41:16;;;;;;;5.55;5.05;;;17.80;99.90;;;;;;4991893;28;20093;-74
2021/07/07 05:43:43;;;;;;;4.78;4.20;;;17.70;99.90;;;;;;4993074;28;20050;-75
2021/07/07 05:46:10;;;;;;;7.28;4.70;;;17.70;99.90;;;;;;4993109;28;20462;-72
2021/07/07 05:48:37;;;;;;;6.38;5.80;;;17.70;99.90;;;;;;4992583;28;20554;-72
2021/07/07 05:51:04;;;;;;;15.02;9.63;;;17.80;99.90;;;;;;4992397;28;20410;-72
2021/07/07 05:53:31;;;;;;;10.70;7.20;;;17.80;99.90;;;;;;4992862;28;20046;-72
2021/07/07 05:55:57;;;;;;;6.00;5.40;;;17.80;99.90;;;;;;4993160;28;20110;-71
2021/07/07 05:58:25;;;;;;;10.85;6.40;;;17.90;99.90;;;;;;4992782;28;20046;-70
2021/07/07 06:00:52;;;;;;;8.40;7.53;;;17.80;99.90;;;;;;4992849;28;20038;-71
2021/07/07 06:03:19;;;;;;;17.27;10.57;;;17.80;99.90;;;;;;4992159;28;20087;-72
2021/07/07 06:05:45;;;;;;;8.40;5.43;;;17.70;99.90;;;;;;4991977;28;20129;-70
2021/07/07 06:08:12;;;;;;;11.52;8.45;;;17.80;99.90;;;;;;4991812;28;20478;-68
2021/07/07 06:10:40;;;;;;;5.57;4.95;;;17.70;99.90;;;;;;4995370;28;20108;-69
2021/07/07 06:13:07;;;;;;;5.25;4.70;;;17.70;99.90;;;;;;4996322;28;20506;-77
2021/07/07 06:15:36;;;;;;;10.15;6.75;;;17.80;99.90;;;;;;4995696;28;20128;-72
2021/07/07 06:18:03;;;;;;;5.63;4.93;;;17.80;99.90;;;;;;4996198;28;20049;-70
2021/07/07 06:20:30;;;;;;;11.27;5.25;;;17.80;99.90;;;;;;4994764;28;20038;-69
2021/07/07 06:22:57;;;;;;;8.45;6.40;;;17.80;99.90;;;;;;4995694;28;20105;-71
2021/07/07 06:25:24;;;;;;;7.68;5.57;;;17.90;99.90;;;;;;4995825;28;20141;-70
2021/07/07 06:27:51;;;;;;;24.52;17.65;;;17.90;99.90;;;;;;4995777;28;20050;-73
2021/07/07 06:30:20;;;;;;;5.90;5.28;;;17.90;99.90;;;;;;4996225;28;20058;-73
2021/07/07 06:32:49;;;;;;;11.48;6.82;;;17.90;99.90;;;;;;4996024;28;20046;-71
2021/07/07 06:35:17;;;;;;;7.70;6.90;;;17.90;99.90;;;;;;4996584;28;20046;-72
2021/07/07 06:37:45;;;;;;;7.97;6.43;;;17.90;99.90;;;;;;4998330;28;20046;-72
2021/07/07 06:40:13;;;;;;;7.72;6.43;;;17.90;99.90;;;;;;4995796;28;20066;-70
2021/07/07 06:42:40;;;;;;;7.00;5.63;;;18.00;99.90;;;;;;4997449;28;20055;-74
2021/07/07 06:45:10;;;;;;;6.97;5.10;;;18.00;99.90;;;;;;4996836;28;20048;-71
2021/07/07 06:47:37;;;;;;;5.35;4.85;;;17.90;99.90;;;;;;4995915;28;20050;-69
2021/07/07 06:50:07;;;;;;;9.18;7.05;;;17.90;99.90;;;;;;4997573;28;20093;-74
2021/07/07 06:52:34;;;;;;;5.38;4.80;;;17.90;99.90;;;;;;4995961;28;20112;-71
2021/07/07 06:55:01;;;;;;;5.00;4.60;;;17.90;99.90;;;;;;4997508;28;20054;-69
2021/07/07 06:57:34;;;;;;;6.72;5.30;;;18.00;99.90;;;;;;4995941;28;20054;-70
2021/07/07 07:00:01;;;;;;;7.55;5.57;;;18.00;99.90;;;;;;4996848;28;20056;-69
2021/07/07 07:02:30;;;;;;;7.32;6.07;;;18.00;99.90;;;;;;4977376;28;20051;-74
2021/07/07 07:04:57;;;;;;;5.95;5.35;;;18.00;99.90;;;;;;4985724;28;20113;-72
2021/07/07 07:07:25;;;;;;;7.40;5.18;;;18.00;99.90;;;;;;4995657;28;20050;-73
2021/07/07 07:09:51;;;;;;;6.80;5.13;;;18.00;99.90;;;;;;4995344;28;20521;-75
2021/07/07 07:12:18;;;;;;;6.60;5.20;;;18.10;99.90;;;;;;4988003;28;20050;-75
2021/07/07 07:14:45;;;;;;;5.72;4.75;;;18.10;99.90;;;;;;4996286;28;20046;-72
2021/07/07 07:17:11;;;;;;;7.25;5.68;;;18.10;99.90;;;;;;4999931;28;20494;-74
2021/07/07 07:19:38;;;;;;;11.25;6.18;;;18.10;99.90;;;;;;4997574;28;20053;-72
2021/07/07 07:22:05;;;;;;;7.15;5.10;;;18.10;99.90;;;;;;4995274;28;20046;-73
2021/07/07 07:24:33;;;;;;;6.72;5.22;;;18.10;99.90;;;;;;4996833;28;20061;-72
2021/07/07 07:27:00;;;;;;;7.15;4.97;;;18.20;99.90;;;;;;4995964;28;20097;-72
2021/07/07 07:29:27;;;;;;;5.47;4.15;;;18.00;99.90;;;;;;4994903;28;20050;-70
2021/07/07 07:31:53;;;;;;;6.95;5.47;;;18.20;99.90;;;;;;4995112;28;20046;-70
2021/07/07 07:34:20;;;;;;;9.95;5.63;;;18.30;99.90;;;;;;4994587;28;20077;-73
2021/07/07 07:36:49;;;;;;;27.13;16.45;;;18.40;99.90;;;;;;4994506;28;20108;-70
2021/07/07 07:39:20;;;;;;;8.77;5.80;;;18.30;99.90;;;;;;4993992;28;20081;-71
2021/07/07 07:41:48;;;;;;;19.77;12.02;;;18.40;99.90;;;;;;5001565;28;20055;-70
2021/07/07 07:44:14;;;;;;;27.50;19.35;;;18.40;99.90;;;;;;4997423;28;20046;-69
2021/07/07 07:46:41;;;;;;;40.88;25.20;;;18.40;99.90;;;;;;4996547;28;20047;-72
2021/07/07 07:49:10;;;;;;;7.15;6.45;;;18.50;99.90;;;;;;4996433;28;20042;-74
2021/07/07 07:51:36;;;;;;;7.03;5.93;;;18.50;99.90;;;;;;4995432;28;20088;-75
2021/07/07 07:54:03;;;;;;;6.30;5.65;;;18.50;99.90;;;;;;4995679;28;20050;-75
2021/07/07 07:56:30;;;;;;;7.93;4.95;;;18.60;99.90;;;;;;4994766;28;20042;-74
2021/07/07 07:58:59;;;;;;;7.20;5.65;;;18.40;99.90;;;;;;4994756;28;20057;-74
2021/07/07 08:01:26;;;;;;;14.32;8.90;;;18.40;99.90;;;;;;4994303;28;20053;-73
2021/07/07 08:03:52;;;;;;;5.40;4.90;;;18.50;99.90;;;;;;4994491;28;20050;-72
2021/07/07 08:06:19;;;;;;;5.38;4.65;;;18.50;99.90;;;;;;4994996;28;20105;-71
2021/07/07 08:08:46;;;;;;;7.15;5.78;;;18.50;99.90;;;;;;4994201;28;20038;-74
2021/07/07 08:11:12;;;;;;;8.50;6.65;;;18.50;99.90;;;;;;4994517;28;20043;-71
2021/07/07 08:13:40;;;;;;;8.05;6.57;;;18.50;99.90;;;;;;4994554;28;20498;-70
2021/07/07 08:16:08;;;;;;;13.18;9.73;;;18.50;99.90;;;;;;4993504;28;20065;-72
2021/07/07 08:18:35;;;;;;;6.00;5.45;;;18.60;99.90;;;;;;4993854;28;20054;-70
2021/07/07 08:21:02;;;;;;;6.82;6.07;;;18.70;99.90;;;;;;4994492;28;20049;-72
2021/07/07 08:23:29;;;;;;;7.03;5.00;;;18.80;99.90;;;;;;4994118;28;20104;-76
2021/07/07 08:25:55;;;;;;;6.97;3.90;;;19.00;99.90;;;;;;4994688;28;20050;-74
2021/07/07 08:28:22;;;;;;;4.97;4.55;;;18.80;99.90;;;;;;4993077;28;20093;-77
2021/07/07 08:30:49;;;;;;;7.30;4.97;;;18.80;99.90;;;;;;4993794;28;20042;-75
2021/07/07 08:33:17;;;;;;;5.00;4.55;;;18.80;99.90;;;;;;4994155;28;20097;-72
2021/07/07 08:35:44;;;;;;;7.97;5.93;;;18.80;99.90;;;;;;4993776;28;20046;-72
2021/07/07 08:38:12;;;;;;;22.48;14.52;;;19.00;99.90;;;;;;4993800;28;20105;-69
2021/07/07 08:40:38;;;;;;;13.10;9.40;;;19.20;99.90;;;;;;4992657;28;20038;-73
2021/07/07 08:43:05;;;;;;;23.02;14.13;;;19.00;99.90;;;;;;4993408;28;20046;-70
2021/07/07 08:45:33;;;;;;;28.27;16.65;;;19.10;99.90;;;;;;4993200;28;20050;-69
2021/07/07 08:48:00;;;;;;;12.57;5.32;;;19.10;99.90;;;;;;4987802;28;20086;-73
2021/07/07 08:50:30;;;;;;;6.85;4.38;;;19.00;99.90;;;;;;4992018;28;20054;-74
2021/07/07 08:52:58;;;;;;;32.83;18.70;;;19.00;99.90;;;;;;4993209;28;20046;-73
2021/07/07 08:55:25;;;;;;;27.73;15.90;;;19.10;99.90;;;;;;4993084;28;20082;-72
2021/07/07 08:57:52;;;;;;;25.05;16.75;;;19.20;99.90;;;;;;4992787;28;20113;-73
2021/07/07 09:00:22;;;;;;;27.48;15.50;;;19.40;99.90;;;;;;4974590;28;20050;-71
2021/07/07 09:02:51;;;;;;;50.33;28.13;;;19.60;99.90;;;;;;4992768;28;20054;-70
2021/07/07 09:05:17;;;;;;;28.95;17.63;;;19.60;99.90;;;;;;4992800;28;20104;-71
2021/07/07 09:07:45;;;;;;;19.13;11.60;;;19.70;99.90;;;;;;4992943;28;20042;-71
2021/07/07 09:10:17;;;;;;;11.23;8.23;;;19.60;99.90;;;;;;4992015;28;20073;-70
2021/07/07 09:12:43;;;;;;;14.10;6.60;;;19.50;99.90;;;;;;4992411;28;20470;-69
2021/07/07 09:15:12;;;;;;;8.93;5.75;;;19.40;99.90;;;;;;4992616;28;20078;-68
2021/07/07 09:17:40;;;;;;;5.22;3.45;;;19.50;99.90;;;;;;4992881;28;20050;-70
2021/07/07 09:20:16;;;;;;;18.58;11.60;;;19.50;99.90;;;;;;4991758;28;20038;-72
2021/07/07 09:22:42;;;;;;;21.95;12.80;;;19.70;99.90;;;;;;4992027;28;20049;-72
2021/07/07 09:25:13;;;;;;;18.17;12.40;;;19.90;99.90;;;;;;4992489;28;20053;-71
2021/07/07 09:27:40;;;;;;;13.18;8.45;;;20.00;99.90;;;;;;4992604;28;20122;-69
2021/07/07 09:30:10;;;;;;;7.78;5.85;;;20.10;99.90;;;;;;4991927;28;20454;-72
2021/07/07 09:32:44;;;;;;;17.98;11.07;;;20.20;99.90;;;;;;4992796;28;20490;-72
2021/07/07 09:35:11;;;;;;;44.22;25.08;;;20.10;99.90;;;;;;4992238;28;20613;-72
2021/07/07 09:37:42;;;;;;;22.20;14.38;;;19.90;99.90;;;;;;4992372;28;20053;-73
2021/07/07 09:40:12;;;;;;;6.38;5.07;;;19.90;99.90;;;;;;4991919;28;20064;-72
2021/07/07 09:42:40;;;;;;;9.68;5.20;;;19.80;99.90;;;;;;4992322;28;20049;-73
2021/07/07 09:45:09;;;;;;;15.02;11.70;;;19.70;99.90;;;;;;4991986;28;20089;-71
2021/07/07 09:47:36;;;;;;;50.05;31.85;;;19.80;99.90;;;;;;4992339;28;20057;-70
2021/07/07 09:50:05;;;;;;;19.50;14.30;;;19.70;99.90;;;;;;4991684;28;20046;-74
2021/07/07 09:52:32;;;;;;;14.40;10.73;;;19.70;99.90;;;;;;4991954;28;20105;-73
2021/07/07 09:55:01;;;;;;;15.43;10.85;;;19.70;99.90;;;;;;4992108;28;20097;-72
2021/07/07 09:57:29;;;;;;;16.65;10.30;;;19.60;99.90;;;;;;4992084;28;20082;-70
2021/07/07 09:59:56;;;;;;;23.08;14.60;;;19.70;99.90;;;;;;4991438;28;20042;-71
2021/07/07 10:02:23;;;;;;;27.88;16.98;;;19.60;99.90;;;;;;4992176;28;20569;-69
2021/07/07 10:04:52;;;;;;;21.65;13.20;;;19.50;99.90;;;;;;4991980;28;20537;-74
2021/07/07 10:07:19;;;;;;;35.28;20.00;;;19.20;99.90;;;;;;4991969;28;20047;-69
2021/07/07 10:09:47;;;;;;;29.33;18.50;;;19.20;99.90;;;;;;4990974;28;20449;-72
2021/07/07 10:12:15;;;;;;;26.15;17.40;;;19.20;99.90;;;;;;4986905;28;20050;-72
2021/07/07 10:14:45;;;;;;;10.05;7.07;;;19.20;99.90;;;;;;4991598;28;20046;-72
2021/07/07 10:17:12;;;;;;;6.03;4.80;;;19.20;99.90;;;;;;4991763;28;20054;-72
2021/07/07 10:19:40;;;;;;;3.00;2.70;;;19.30;99.90;;;;;;4991080;28;20042;-73
2021/07/07 10:22:06;;;;;;;11.00;8.07;;;19.20;99.90;;;;;;4985044;28;20046;-72
2021/07/07 10:24:35;;;;;;;5.00;4.50;;;19.40;99.90;;;;;;4991550;28;20058;-72
2021/07/07 10:27:06;;;;;;;6.15;4.38;;;19.50;99.90;;;;;;4991792;28;20105;-73
2021/07/07 10:29:35;;;;;;;6.07;3.78;;;19.50;99.90;;;;;;4985853;28;20650;-73
2021/07/07 10:32:06;;;;;;;13.40;9.13;;;19.50;99.90;;;;;;4992175;28;20109;-73
2021/07/07 10:34:33;;;;;;;4.83;3.90;;;19.60;99.90;;;;;;4992114;28;20046;-73
2021/07/07 10:37:04;;;;;;;57.85;33.40;;;19.70;99.90;;;;;;4991920;28;20117;-72
2021/07/07 10:39:31;;;;;;;7.45;6.10;;;19.70;99.90;;;;;;4990476;28;20050;-73
2021/07/07 10:42:01;;;;;;;7.07;5.72;;;19.70;99.90;;;;;;4991233;28;20558;-73
2021/07/07 10:45:01;;;;;;;6.75;4.45;;;19.90;99.90;;;;;;4991593;28;20050;-73
2021/07/07 10:47:39;;;;;;;4.15;2.20;;;20.10;99.90;;;;;;4991414;28;20050;-72
2021/07/07 10:50:08;;;;;;;2.97;2.40;;;20.30;99.90;;;;;;4991286;28;20073;-73
2021/07/07 10:52:43;;;;;;;12.80;9.02;;;20.50;99.90;;;;;;4991647;28;20054;-73
2021/07/07 10:55:11;;;;;;;8.73;5.40;;;20.70;99.90;;;;;;4991629;28;20052;-73
2021/07/07 10:57:40;;;;;;;4.85;2.53;;;20.70;99.90;;;;;;4995335;28;20042;-73
2021/07/07 11:00:09;;;;;;;44.90;27.67;;;20.40;99.90;;;;;;4994956;28;20125;-73
2021/07/07 11:02:37;;;;;;;2.28;1.88;;;20.30;99.90;;;;;;4994270;28;20494;-71
2021/07/07 11:05:08;;;;;;;43.55;26.27;;;20.20;99.90;;;;;;4994432;28;20043;-71
2021/07/07 11:07:37;;;;;;;10.68;7.70;;;20.30;99.90;;;;;;4993585;28;20125;-69
2021/07/07 11:10:07;;;;;;;13.32;8.60;;;20.40;99.90;;;;;;4994943;28;20042;-72
2021/07/07 11:13:12;;;;;;;31.50;20.23;;;20.30;99.90;;;;;;4993997;28;20050;-71
2021/07/07 11:15:39;;;;;;;13.07;9.35;;;20.40;99.90;;;;;;4993181;28;20046;-69
2021/07/07 11:18:18;;;;;;;7.60;4.40;;;20.20;99.90;;;;;;4994913;28;20498;-71
2021/07/07 11:20:45;;;;;;;19.55;10.45;;;20.20;99.90;;;;;;4993952;28;20209;-70
2021/07/07 11:23:12;;;;;;;16.80;10.90;;;20.10;99.90;;;;;;4994742;28;20050;-70
2021/07/07 11:25:40;;;;;;;28.50;16.63;;;20.20;99.90;;;;;;4994923;28;20641;-68
2021/07/07 11:28:11;;;;;;;20.98;14.32;;;20.10;99.90;;;;;;4994165;28;20450;-74
2021/07/07 11:30:38;;;;;;;13.63;9.90;;;20.30;99.90;;;;;;4993986;28;20089;-73
2021/07/07 11:33:05;;;;;;;4.20;3.80;;;20.40;99.90;;;;;;4994644;28;20080;-74
2021/07/07 11:35:35;;;;;;;5.75;3.50;;;20.40;99.90;;;;;;4994355;28;20046;-74
2021/07/07 11:38:04;;;;;;;4.53;3.58;;;20.30;99.90;;;;;;4994092;28;20569;-74
2021/07/07 11:40:33;;;;;;;8.32;5.22;;;20.30;99.90;;;;;;4992952;28;20051;-73
2021/07/07 11:43:02;;;;;;;11.65;8.48;;;20.40;99.90;;;;;;4994295;28;20117;-68
2021/07/07 11:45:32;;;;;;;12.60;9.00;;;20.60;99.90;;;;;;4993525;28;20039;-70
2021/07/07 11:48:04;;;;;;;19.53;11.53;;;20.70;99.90;;;;;;4994830;28;20068;-69
2021/07/07 11:50:31;;;;;;;3.40;3.08;;;20.90;99.90;;;;;;4993957;28;20757;-74
2021/07/07 11:53:02;;;;;;;8.02;5.00;;;20.90;99.90;;;;;;4994549;28;20077;-71
2021/07/07 11:55:50;;;;;;;22.95;12.85;;;21.20;99.90;;;;;;4993472;28;20553;-73
2021/07/07 11:58:22;;;;;;;16.58;9.88;;;21.20;99.90;;;;;;4993524;28;20081;-71
2021/07/07 12:00:50;;;;;;;38.25;22.25;;;20.80;99.90;;;;;;4993794;28;20051;-71
2021/07/07 12:03:18;;;;;;;17.38;11.65;;;21.00;99.90;;;;;;4993862;28;20450;-70
2021/07/07 12:05:52;;;;;;;12.32;8.43;;;21.00;99.90;;;;;;4992038;28;20054;-68
2021/07/07 12:08:22;;;;;;;34.05;20.58;;;21.10;99.90;;;;;;4992270;28;20482;-72
2021/07/07 12:10:50;;;;;;;22.13;13.30;;;21.10;99.90;;;;;;4994170;28;20069;-72
2021/07/07 12:13:21;;;;;;;14.55;9.38;;;21.20;99.90;;;;;;4994502;28;20050;-71
2021/07/07 12:15:48;;;;;;;17.65;12.02;;;21.40;99.90;;;;;;4994208;28;20499;-71
2021/07/07 12:18:23;;;;;;;11.10;7.28;;;21.50;99.90;;;;;;4993656;28;20119;-69
2021/07/07 12:20:50;;;;;;;19.63;14.13;;;21.60;99.90;;;;;;4993042;28;20042;-69
2021/07/07 12:23:17;;;;;;;3.45;3.10;;;21.70;99.90;;;;;;4979903;28;20438;-72
2021/07/07 12:25:45;;;;;;;4.28;2.83;;;21.90;99.90;;;;;;4993346;28;20053;-71
2021/07/07 12:28:12;;;;;;;7.45;4.70;;;22.40;99.90;;;;;;4993679;28;20055;-72
2021/07/07 12:30:39;;;;;;;4.82;3.47;;;22.80;99.90;;;;;;4993238;28;20082;-72
2021/07/07 12:33:05;;;;;;;5.05;3.58;;;23.30;99.90;;;;;;4993518;28;20046;-71
2021/07/07 12:35:32;;;;;;;3.00;2.70;;;23.50;99.90;;;;;;4993339;28;20494;-71
2021/07/07 12:37:59;;;;;;;4.60;3.13;;;23.50;99.90;;;;;;4993521;28;20050;-72
2021/07/07 12:40:25;;;;;;;9.20;8.02;;;23.60;99.90;;;;;;4993081;28;20058;-73
2021/07/07 12:42:55;;;;;;;8.27;6.53;;;24.30;99.90;;;;;;4993491;28;20050;-73
2021/07/07 12:45:25;;;;;;;10.95;8.27;;;24.60;99.90;;;;;;4993033;28;20161;-73